Time;durP1;ratioP1;P1;durP2;ratioP2;P2;SDS_P1;SDS_P2;PMS_P1;PMS_P2;Temp;Humidity;BMP_temperature;BMP_pressure;BME280_temperature;BME280_humidity;BME280_pressure;Samples;Min_cycle;Max_cycle;Signal;HPM_P1;HPM_P2
2021/01/29 00:02:11;;;;;;;15.55;9.45;;;4.10;99.90;;;;;;5095816;28;20121;-69
2021/01/29 00:04:39;;;;;;;15.52;8.98;;;4.10;99.90;;;;;;5096773;28;20024;-68
2021/01/29 00:07:07;;;;;;;13.73;8.35;;;4.10;99.90;;;;;;5095678;28;20028;-71
2021/01/29 00:09:34;;;;;;;15.00;8.80;;;4.10;99.90;;;;;;5096578;28;20465;-69
2021/01/29 00:12:00;;;;;;;13.27;8.38;;;4.20;99.90;;;;;;5095536;28;20431;-68
2021/01/29 00:14:26;;;;;;;15.88;9.02;;;4.10;99.90;;;;;;5096923;28;20020;-69
2021/01/29 00:16:51;;;;;;;13.98;8.10;;;4.20;99.90;;;;;;5095473;28;20477;-69
2021/01/29 00:19:17;;;;;;;13.13;8.18;;;4.20;99.90;;;;;;5095182;28;20070;-69
2021/01/29 00:21:43;;;;;;;12.88;8.13;;;4.20;99.90;;;;;;5095404;28;20020;-70
2021/01/29 00:24:09;;;;;;;15.35;7.40;;;4.20;99.90;;;;;;5096464;28;20052;-68
2021/01/29 00:26:35;;;;;;;13.27;7.53;;;4.20;99.90;;;;;;5096299;28;20058;-69
2021/01/29 00:29:00;;;;;;;11.95;6.90;;;4.20;99.90;;;;;;5096637;28;20028;-69
2021/01/29 00:31:26;;;;;;;11.73;7.07;;;4.30;99.90;;;;;;5096086;28;20028;-69
2021/01/29 00:33:52;;;;;;;12.80;7.13;;;4.30;99.90;;;;;;5094918;28;20032;-70
2021/01/29 00:36:17;;;;;;;11.35;6.45;;;4.30;99.90;;;;;;5096140;28;20032;-69
2021/01/29 00:38:44;;;;;;;14.05;7.32;;;4.30;99.90;;;;;;5095245;28;20032;-67
2021/01/29 00:41:09;;;;;;;13.98;7.22;;;4.30;99.90;;;;;;5094874;28;20035;-70
2021/01/29 00:43:35;;;;;;;13.35;7.40;;;4.40;99.90;;;;;;5096327;28;20382;-69
2021/01/29 00:46:01;;;;;;;12.75;7.30;;;4.30;99.90;;;;;;5094233;28;20487;-69
2021/01/29 00:48:27;;;;;;;13.32;7.85;;;4.40;99.90;;;;;;5094672;28;20024;-69
2021/01/29 00:50:52;;;;;;;11.00;6.97;;;4.30;99.90;;;;;;5094920;28;20381;-68
2021/01/29 00:53:18;;;;;;;11.25;7.38;;;4.30;99.90;;;;;;5094464;28;20024;-68
2021/01/29 00:55:44;;;;;;;13.02;7.45;;;4.40;99.90;;;;;;5094769;28;20078;-69
2021/01/29 00:58:10;;;;;;;13.75;7.07;;;4.30;99.90;;;;;;5096080;28;20028;-69
2021/01/29 01:00:35;;;;;;;11.88;6.70;;;4.30;99.90;;;;;;5094361;28;20062;-70
2021/01/29 01:03:01;;;;;;;13.15;6.97;;;4.30;99.90;;;;;;5095123;28;20028;-69
2021/01/29 01:05:28;;;;;;;9.95;6.20;;;4.40;99.90;;;;;;5095988;28;20465;-69
2021/01/29 01:07:55;;;;;;;11.55;6.70;;;4.30;99.90;;;;;;5094299;28;20118;-71
2021/01/29 01:10:22;;;;;;;9.50;5.82;;;4.30;99.90;;;;;;5094572;28;20111;-70
2021/01/29 01:12:47;;;;;;;9.57;5.80;;;4.30;99.90;;;;;;5094513;28;20055;-70
2021/01/29 01:15:17;;;;;;;9.15;5.50;;;4.20;99.90;;;;;;5094102;28;20055;-72
2021/01/29 01:17:43;;;;;;;8.82;5.43;;;4.30;99.90;;;;;;5094395;28;20024;-70
2021/01/29 01:20:13;;;;;;;9.48;5.65;;;4.30;99.90;;;;;;5094399;28;20118;-69
2021/01/29 01:22:38;;;;;;;9.77;5.57;;;4.30;99.90;;;;;;5094892;28;20020;-69
2021/01/29 01:25:05;;;;;;;9.48;5.90;;;4.30;99.80;;;;;;5094548;28;20051;-72
2021/01/29 01:27:30;;;;;;;8.38;5.63;;;4.30;99.70;;;;;;5094136;28;20118;-69
2021/01/29 01:29:56;;;;;;;10.18;5.55;;;4.40;99.60;;;;;;5093863;28;20115;-69
2021/01/29 01:32:22;;;;;;;10.05;5.65;;;4.40;99.60;;;;;;5094245;28;20020;-68
2021/01/29 01:34:47;;;;;;;10.93;6.60;;;4.40;99.40;;;;;;5094436;28;20024;-69
2021/01/29 01:37:13;;;;;;;9.90;5.88;;;4.40;99.20;;;;;;5094658;28;20389;-70
2021/01/29 01:39:39;;;;;;;9.23;5.80;;;4.40;99.10;;;;;;5093930;28;20028;-70
2021/01/29 01:42:05;;;;;;;11.13;6.10;;;4.40;99.10;;;;;;5093547;28;20458;-72
2021/01/29 01:44:34;;;;;;;8.60;5.10;;;4.40;99.10;;;;;;5093855;28;20028;-70
2021/01/29 01:47:09;;;;;;;9.63;5.93;;;4.40;99.10;;;;;;5093851;28;20044;-69
2021/01/29 01:49:36;;;;;;;8.70;5.43;;;4.40;99.00;;;;;;5093798;28;20058;-72
2021/01/29 01:52:05;;;;;;;6.97;4.75;;;4.50;98.90;;;;;;5093748;28;20073;-68
2021/01/29 01:54:54;;;;;;;8.13;5.05;;;4.40;98.90;;;;;;5093956;28;20024;-70
2021/01/29 01:57:23;;;;;;;7.95;4.80;;;4.40;98.90;;;;;;5093140;28;20497;-69
2021/01/29 01:59:56;;;;;;;8.73;5.28;;;4.40;98.60;;;;;;5092830;28;20044;-69
2021/01/29 02:02:25;;;;;;;9.77;5.50;;;4.50;98.90;;;;;;5094555;28;20036;-69
2021/01/29 02:04:52;;;;;;;10.82;5.68;;;4.50;98.70;;;;;;5093173;28;20028;-71
2021/01/29 02:07:36;;;;;;;11.02;6.20;;;4.40;98.90;;;;;;5094467;28;20103;-67
2021/01/29 02:10:03;;;;;;;9.70;6.38;;;4.40;98.90;;;;;;5093893;28;20342;-68
2021/01/29 02:12:29;;;;;;;10.63;5.85;;;4.50;98.60;;;;;;5094282;28;20024;-69
2021/01/29 02:14:55;;;;;;;11.23;6.50;;;4.50;98.60;;;;;;5094607;28;20107;-68
2021/01/29 02:17:50;;;;;;;11.45;6.63;;;4.40;98.40;;;;;;5092896;28;20031;-67
2021/01/29 02:20:35;;;;;;;10.15;6.38;;;4.40;98.50;;;;;;5094525;28;20016;-69
2021/01/29 02:23:17;;;;;;;;;;;4.40;98.10;;;;;;5093910;28;20460;-71
2021/01/29 02:25:45;;;;;;;11.05;6.65;;;4.40;98.20;;;;;;5092830;28;19998;-70
2021/01/29 02:28:37;;;;;;;11.68;6.70;;;4.30;98.60;;;;;;5093069;28;20355;-70
2021/01/29 02:31:31;;;;;;;11.27;6.88;;;4.30;98.50;;;;;;5093364;28;20027;-69
2021/01/29 02:34:31;;;;;;;16.70;10.15;;;4.20;98.80;;;;;;5093038;28;20073;-71
2021/01/29 02:37:11;;;;;;;16.27;8.98;;;4.20;99.00;;;;;;5092858;28;20031;-67
2021/01/29 02:39:43;;;;;;;13.70;8.15;;;4.20;98.70;;;;;;5092742;28;20028;-69
2021/01/29 02:42:30;;;;;;;19.77;12.13;;;4.20;98.60;;;;;;5092891;28;20028;-69
2021/01/29 02:45:24;;;;;;;27.27;16.65;;;4.30;98.40;;;;;;5093797;28;20024;-70
2021/01/29 02:47:54;;;;;;;30.02;17.25;;;4.20;98.50;;;;;;5089495;28;20036;-68
2021/01/29 02:50:52;;;;;;;23.88;15.45;;;4.20;99.10;;;;;;5093756;28;20150;-68
2021/01/29 02:53:33;;;;;;;21.90;13.93;;;4.20;98.90;;;;;;5087491;28;20040;-71
2021/01/29 02:56:20;;;;;;;20.25;12.38;;;4.20;99.40;;;;;;5092693;28;20089;-69
2021/01/29 02:59:03;;;;;;;18.15;10.10;;;4.20;99.20;;;;;;5092615;28;20050;-70
2021/01/29 03:01:43;;;;;;;18.63;11.52;;;4.20;98.30;;;;;;5092714;28;20036;-69
2021/01/29 03:04:26;;;;;;;19.33;12.18;;;4.20;98.00;;;;;;5093698;28;20556;-68
2021/01/29 03:07:01;;;;;;;26.50;16.85;;;4.30;98.00;;;;;;5093619;28;20067;-69
2021/01/29 03:10:02;;;;;;;28.42;18.35;;;4.30;98.10;;;;;;5092067;28;20025;-69
2021/01/29 03:12:36;;;;;;;36.75;22.73;;;4.20;98.60;;;;;;5082939;28;20044;-70
2021/01/29 03:15:31;;;;;;;32.45;20.98;;;4.20;99.20;;;;;;5092217;28;20047;-69
2021/01/29 03:18:17;;;;;;;39.67;23.50;;;4.10;99.10;;;;;;5082720;28;20044;-68
2021/01/29 03:21:14;;;;;;;24.65;15.00;;;4.20;99.40;;;;;;5093899;28;20179;-69
2021/01/29 03:23:49;;;;;;;21.98;12.88;;;4.20;99.40;;;;;;5087991;28;20111;-68
2021/01/29 03:26:29;;;;;;;;;;;4.30;98.90;;;;;;5092850;28;20028;-70
2021/01/29 03:29:04;;;;;;;38.88;21.98;;;4.30;99.00;;;;;;5092091;28;19911;-70
2021/01/29 03:31:31;;;;;;;;;;;4.20;99.40;;;;;;5093830;28;20039;-69
2021/01/29 03:34:08;;;;;;;41.60;24.60;;;4.20;98.20;;;;;;5093317;28;20357;-72
2021/01/29 03:36:41;;;;;;;58.80;36.35;;;4.20;98.70;;;;;;5092568;28;20097;-69
2021/01/29 03:39:28;;;;;;;67.60;41.85;;;4.20;98.90;;;;;;5093594;28;20024;-69
2021/01/29 03:42:29;;;;;;;49.50;32.40;;;4.20;98.90;;;;;;5092980;28;20485;-70
2021/01/29 03:45:13;;;;;;;36.28;22.90;;;4.20;98.90;;;;;;5092113;28;20110;-71
2021/01/29 03:47:48;;;;;;;36.45;21.27;;;4.20;98.00;;;;;;5092235;28;20043;-72
2021/01/29 03:50:32;;;;;;;;;;;4.30;98.00;;;;;;5092257;28;20027;-70
2021/01/29 03:53:16;;;;;;;38.03;21.85;;;4.30;98.30;;;;;;5092133;28;19904;-70
2021/01/29 03:55:47;;;;;;;35.03;20.50;;;4.30;98.20;;;;;;5091711;28;20411;-70
2021/01/29 03:58:36;;;;;;;33.65;20.92;;;4.30;98.00;;;;;;5093325;28;20052;-69
2021/01/29 04:01:20;;;;;;;29.83;19.13;;;4.30;98.30;;;;;;5091816;28;20044;-71
2021/01/29 04:04:21;;;;;;;31.25;18.27;;;4.30;98.50;;;;;;5092997;28;20028;-69
2021/01/29 04:06:54;;;;;;;24.13;15.68;;;4.40;98.10;;;;;;5059879;28;20047;-71
2021/01/29 04:09:49;;;;;;;22.27;13.07;;;4.40;98.10;;;;;;5091706;28;20059;-70
2021/01/29 04:12:25;;;;;;;22.30;12.63;;;4.40;98.20;;;;;;5091995;28;20035;-70
2021/01/29 04:14:59;;;;;;;17.95;11.27;;;4.40;97.90;;;;;;5093628;28;20107;-72
2021/01/29 04:17:44;;;;;;;15.30;10.82;;;4.40;98.80;;;;;;5092608;28;20032;-73
2021/01/29 04:20:40;;;;;;;17.80;10.13;;;4.40;98.10;;;;;;5091855;28;20086;-71
2021/01/29 04:23:13;;;;;;;17.08;10.40;;;4.40;98.60;;;;;;5085553;28;20043;-69
2021/01/29 04:25:43;;;;;;;15.27;9.73;;;4.40;98.20;;;;;;5096492;28;20036;-69
2021/01/29 04:28:15;;;;;;;14.40;9.77;;;4.40;98.20;;;;;;5095362;28;20557;-69
2021/01/29 04:30:45;;;;;;;13.48;8.95;;;4.40;98.20;;;;;;5096363;28;20484;-70
2021/01/29 04:33:50;;;;;;;13.50;8.90;;;4.40;98.20;;;;;;5095289;28;20024;-69
2021/01/29 04:36:18;;;;;;;;;;;4.40;98.10;;;;;;5081606;28;20071;-70
2021/01/29 04:38:49;;;;;;;14.23;8.90;;;4.30;98.00;;;;;;5095272;28;20374;-68
2021/01/29 04:41:30;;;;;;;12.73;9.48;;;4.30;97.40;;;;;;5096497;28;20043;-70
2021/01/29 04:44:35;;;;;;;16.83;11.05;;;4.30;98.60;;;;;;5095072;28;20016;-71
2021/01/29 04:47:13;;;;;;;18.92;11.13;;;4.30;98.20;;;;;;5092109;28;20044;-73
2021/01/29 04:50:02;;;;;;;18.58;12.65;;;4.20;98.90;;;;;;5096370;28;20098;-69
2021/01/29 04:52:56;;;;;;;17.00;11.65;;;4.20;99.20;;;;;;5095007;28;20036;-70
2021/01/29 04:55:30;;;;;;;17.23;11.80;;;4.20;98.50;;;;;;5094826;28;20024;-69
2021/01/29 04:58:00;;;;;;;17.98;11.40;;;4.20;98.40;;;;;;5094779;28;20024;-70
2021/01/29 05:01:06;;;;;;;18.60;11.90;;;4.20;98.50;;;;;;5094306;28;20611;-68
2021/01/29 05:03:51;;;;;;;21.65;14.30;;;4.20;98.90;;;;;;5045635;28;20127;-70
2021/01/29 05:06:48;;;;;;;24.92;14.77;;;4.20;99.10;;;;;;5094416;28;20028;-69
2021/01/29 05:09:42;;;;;;;21.33;13.50;;;4.20;99.20;;;;;;5095851;28;20035;-70
2021/01/29 05:12:36;;;;;;;22.35;14.85;;;4.10;98.70;;;;;;5094089;28;20021;-71
2021/01/29 05:15:20;;;;;;;24.10;14.90;;;4.10;98.80;;;;;;5095855;28;20030;-70
2021/01/29 05:17:55;;;;;;;29.43;18.67;;;4.10;99.30;;;;;;5094398;28;20461;-68
2021/01/29 05:20:23;;;;;;;;;;;4.00;99.40;;;;;;5094470;28;20265;-71
2021/01/29 05:23:08;;;;;;;31.52;19.40;;;4.00;99.70;;;;;;5094544;28;19904;-68
2021/01/29 05:25:42;;;;;;;28.27;18.67;;;3.90;99.80;;;;;;5095619;28;20024;-72
2021/01/29 05:28:30;;;;;;;24.80;16.17;;;3.90;99.70;;;;;;5093996;28;20032;-69
2021/01/29 05:31:20;;;;;;;25.17;15.88;;;3.90;99.50;;;;;;5095707;28;20043;-69
2021/01/29 05:34:23;;;;;;;23.65;15.77;;;3.90;99.50;;;;;;5094018;28;20024;-70
2021/01/29 05:37:07;;;;;;;26.23;17.58;;;3.90;99.40;;;;;;5095367;28;20032;-68
2021/01/29 05:39:55;;;;;;;32.72;19.85;;;3.90;99.60;;;;;;5094030;28;20029;-69
2021/01/29 05:42:39;;;;;;;29.23;18.02;;;4.00;99.10;;;;;;5094724;28;20028;-69
2021/01/29 05:45:18;;;;;;;32.60;21.48;;;4.00;98.90;;;;;;5094211;28;20051;-69
2021/01/29 05:48:21;;;;;;;31.20;21.60;;;3.90;98.60;;;;;;5094836;28;20054;-69
2021/01/29 05:51:11;;;;;;;29.63;20.17;;;3.90;99.50;;;;;;5094080;28;20377;-68
2021/01/29 05:53:48;;;;;;;33.67;20.52;;;3.90;99.90;;;;;;5093779;28;20062;-68
2021/01/29 05:56:26;;;;;;;33.67;19.80;;;3.90;99.70;;;;;;5093354;28;20401;-73
2021/01/29 05:58:55;;;;;;;24.38;15.80;;;3.90;99.30;;;;;;5094951;28;20358;-71
2021/01/29 06:01:42;;;;;;;25.50;16.63;;;3.90;98.60;;;;;;5093051;28;20106;-68
2021/01/29 06:04:34;;;;;;;24.70;16.33;;;3.90;99.10;;;;;;5094898;28;20107;-69
2021/01/29 06:07:02;;;;;;;31.23;19.88;;;3.80;98.90;;;;;;5094513;28;20024;-71
2021/01/29 06:09:33;;;;;;;26.42;17.50;;;3.80;98.60;;;;;;5093102;28;20043;-69
2021/01/29 06:12:28;;;;;;;32.55;20.63;;;3.80;99.20;;;;;;5094993;28;20413;-70
2021/01/29 06:15:12;;;;;;;47.70;28.63;;;3.70;99.40;;;;;;5093457;28;20024;-69
2021/01/29 06:17:41;;;;;;;93.85;43.33;;;3.60;99.80;;;;;;5093136;28;20334;-69
2021/01/29 06:20:28;;;;;;;60.50;33.05;;;3.60;99.90;;;;;;5094749;28;20029;-71
2021/01/29 06:22:53;;;;;;;137.07;61.30;;;3.60;99.90;;;;;;5094102;28;20028;-69
2021/01/29 06:25:44;;;;;;;75.35;39.05;;;3.70;99.90;;;;;;5094454;28;20097;-69
2021/01/29 06:28:55;;;;;;;75.13;43.22;;;3.80;98.90;;;;;;5093643;28;20369;-70
2021/01/29 06:31:51;;;;;;;61.65;40.63;;;3.70;99.60;;;;;;5092748;28;20029;-73
2021/01/29 06:34:45;;;;;;;63.70;42.28;;;3.70;99.50;;;;;;5094329;28;20028;-70
2021/01/29 06:37:36;;;;;;;66.82;42.22;;;3.70;99.40;;;;;;5092501;28;20059;-70
2021/01/29 06:40:36;;;;;;;81.43;47.78;;;3.60;99.60;;;;;;5093952;28;20021;-70
2021/01/29 06:43:40;;;;;;;65.68;43.97;;;3.60;99.40;;;;;;5048594;28;20044;-70
2021/01/29 06:46:17;;;;;;;87.32;54.00;;;3.70;99.30;;;;;;5093769;28;20028;-70
2021/01/29 06:48:46;;;;;;;89.90;55.65;;;3.70;99.40;;;;;;5092761;28;20020;-70
2021/01/29 06:51:39;;;;;;;164.73;86.18;;;3.70;99.40;;;;;;5092469;28;20024;-70
2021/01/29 06:54:14;;;;;;;125.47;73.95;;;3.70;99.40;;;;;;5092733;28;20119;-71
2021/01/29 06:56:43;;;;;;;143.18;88.40;;;3.70;99.50;;;;;;5092558;28;20039;-70
2021/01/29 06:59:24;;;;;;;168.15;110.85;;;3.60;99.80;;;;;;5093108;28;20024;-71
2021/01/29 07:02:31;;;;;;;144.23;90.88;;;3.60;99.80;;;;;;5093197;28;20085;-70
2021/01/29 07:04:57;;;;;;;243.80;108.97;;;3.60;99.90;;;;;;5037028;28;20064;-70
2021/01/29 07:07:54;;;;;;;164.57;85.32;;;3.60;99.90;;;;;;5092548;28;20460;-69
2021/01/29 07:11:00;;;;;;;241.82;102.53;;;3.70;99.90;;;;;;5092574;28;20020;-69
2021/01/29 07:13:50;;;;;;;237.05;98.90;;;3.70;99.90;;;;;;5091776;28;20115;-70
2021/01/29 07:16:31;;;;;;;235.20;98.80;;;3.80;99.90;;;;;;5092238;28;20485;-71
2021/01/29 07:19:09;;;;;;;257.45;132.15;;;3.90;99.80;;;;;;5091319;28;20031;-69
2021/01/29 07:22:00;;;;;;;192.18;109.65;;;4.00;99.80;;;;;;5090516;28;20037;-71
2021/01/29 07:24:55;;;;;;;202.38;115.85;;;4.10;99.40;;;;;;5091378;28;20388;-71
2021/01/29 07:27:47;;;;;;;309.75;174.40;;;4.10;99.90;;;;;;5090849;28;20024;-68
2021/01/29 07:30:32;;;;;;;306.50;166.15;;;4.10;99.90;;;;;;5086566;28;20036;-69
2021/01/29 07:33:02;;;;;;;431.60;265.77;;;4.20;99.90;;;;;;5093283;28;20039;-69
2021/01/29 07:35:49;;;;;;;365.80;181.05;;;4.30;99.90;;;;;;5092176;28;20462;-71
2021/01/29 07:38:33;;;;;;;168.82;107.68;;;4.40;99.70;;;;;;5092597;28;20130;-69
2021/01/29 07:41:06;;;;;;;142.57;95.90;;;4.50;99.60;;;;;;5091942;28;20382;-69
2021/01/29 07:43:44;;;;;;;136.88;92.43;;;4.50;99.30;;;;;;5093247;28;20024;-70
2021/01/29 07:46:26;;;;;;;108.88;76.10;;;4.60;99.10;;;;;;5092954;28;20028;-69
2021/01/29 07:49:16;;;;;;;76.53;51.92;;;4.70;99.20;;;;;;5092694;28;20365;-70
2021/01/29 07:51:54;;;;;;;61.92;41.28;;;4.60;99.50;;;;;;5092127;28;20021;-70
2021/01/29 07:54:40;;;;;;;113.88;75.30;;;4.70;99.10;;;;;;5093479;28;20106;-71
2021/01/29 07:57:25;;;;;;;70.63;50.28;;;4.60;99.50;;;;;;5096360;28;20059;-68
2021/01/29 08:00:28;;;;;;;78.38;51.63;;;4.80;99.90;;;;;;5096086;28;20050;-70
2021/01/29 08:03:12;;;;;;;116.75;73.10;;;4.90;99.90;;;;;;5095956;28;20470;-69
2021/01/29 08:05:56;;;;;;;107.95;73.88;;;5.00;99.60;;;;;;5095709;28;20382;-69
2021/01/29 08:08:27;;;;;;;113.10;78.25;;;5.10;99.80;;;;;;5097630;28;20028;-69
2021/01/29 08:10:56;;;;;;;106.63;71.90;;;5.20;99.90;;;;;;5095430;28;20080;-68
2021/01/29 08:13:43;;;;;;;108.03;75.47;;;5.20;99.90;;;;;;5096667;28;20029;-70
2021/01/29 08:17:05;;;;;;;111.82;73.60;;;5.20;99.90;;;;;;5095516;28;20061;-68
2021/01/29 08:20:13;;;;;;;128.10;83.00;;;5.30;99.20;;;;;;5095244;28;20062;-69
